Seattle, WA

11:27 PM PDT on June 01, 2015 (GMT -0700)
Seattle-Tacoma International | | Change Station
CLOSE
Current Station
Airport
Location: Seattle,
Elevation: 433 ft
Nearby Weather Stations

Elev 433 ft 47.44 °N, 122.31 °W | Updated 34 minutes ago

Overcast
Overcast
57 °F
Feels Like 57 °F
N
9
Wind Variable Wind from SSW

Today
High -- | Low -- °F
--% Chance of Precip.
Yesterday
High -- | Low -- °F
Precip. -- in
5:15 AM 8:59 PM
Full, 100% visible
Pressure 29.98 in
Visibility 10.0 miles
Clouds Few 1200 ft
Mostly Cloudy 3500 ft
Overcast 6000 ft
Dew Point 52 °F
Humidity 83%
Rainfall 0.00 in
Snow Depth Not available.
UV 0 out of 12
Pollen 7.20 out of 12
Air Quality Not available.
Flu Activity Sporadic
METAR KSEA 020553Z 21008KT 10SM FEW012 BKN035 OVC060 14/11 A2996 RMK AO2 SLP151 60000 T01390111 10150 20139 53003

More Conditions Fewer Conditions

Pressure 29.98 in
Visibility 10.0 miles
Clouds Few 1200 ft
Mostly Cloudy 3500 ft
Overcast 6000 ft
Dew Point 52 °F
Humidity 83%
Rainfall 0.00 in
Snow Depth Not available.
UV 0 out of 12
Pollen 7.20 out of 12
Air Quality Not available.
Flu Activity Sporadic
METAR KSEA 020553Z 21008KT 10SM FEW012 BKN035 OVC060 14/11 A2996 RMK AO2 SLP151 60000 T01390111 10150 20139 53003

More Conditions Fewer Conditions

10-Day Weather Forecast

Almanac

Astronomy

Jun. 01, 2015 Rise Set
Actual Time
Civil Twilight
Nautical Twilight
Astronomical Twilight
Moon
Length of Visible Light
Length of Day
Tomorrow will be .
, % of the Moon is Illuminated

Today's Extremes

State Highs State Lows

Community

WunderPhotos

Upload Photos

1,825,923 photos uploaded!

WunderBlogs® & News

Nearby

Air Quality

  Air Quality AQ Index Pollutant
Not available.

Snow Depth

Station Depth Elevation

Earthquake Activity

City Distance Mag. Time & Date
Minimum magnitude displayed is 2.5.

Coastal Water Temperatures

Place Temperature

Stations

Nearby Weather Stations

Station Location Temp. Windchill Dew Point Humidity Wind Precip. Elev Updated Type